Airfield :
LOGIN :

Register | Disclaimer

   EN    FR    IT 

 










Legend :    VFR   Marginal VFR   IFR   Intensive IFR   Very Intensive IFR
Visi :
Ceiling :
>= 8 km
>= 3000ft
5 to 8 km
1000 to 3000 ft
1500m to 5 km
500 to 1000 ft
800 to 1500m
200 to 500 ft
< 800m
< 200 ft
Symbols :   Thunderstorms  Fog  Heavy snow  Heavy precipitations  Wind > 20 kt
SIGMETs :     Misc.  Thunderstorms  Icing  Turbulence  Mountain Waves  Volcanic Ashes






- Airport Elevation : 162 ft
- IATA code : BOD


LFBD - Bordeaux / Merignac

CURRENT METAR :
  • 222200Z AUTO 31009KT 280V340 9999 -RA FEW013/// BKN034/// BKN048/// ///TCU 07/06 Q1007 TEMPO 3000 SHRA SCT020CB BKN025TCU

EXPIRED METARs :
  • 222130Z AUTO 23007KT 8000 -RA BKN036/// BKN045/// OVC076/// ///TCU 07/06 Q1007 TEMPO 3000 SHRA SCT020CB BKN025TCU
  • 222100Z AUTO 29009KT 250V340 7000 -RA FEW021/// SCT031/// BKN040/// ///CB 07/05 Q1007 TEMPO 3000 SHRA
  • 222030Z AUTO 21005KT 9999 SCT036/// SCT042/// BKN054/// ///TCU 06/05 Q1007 TEMPO 3000 SHRA SCT020CB BKN025TCU
  • 222000Z AUTO 23009KT 9999 FEW013/// SCT036/// BKN048/// ///TCU 07/05 Q1007 TEMPO 3000 SHRA SCT020CB BKN025TCU
  • 221930Z AUTO 31004KT 260V040 9999 -RA SCT035/// BKN050/// BKN068/// ///TCU 06/05 Q1007 TEMPO 3000 SHRA SCT020CB BKN025TCU

TAF TAF LFBD
Valid from the 22 at 18:00 until the 24 at 00:00 UTC


221700Z 2218/2324 25010KT 9999 BKN030 TX11/2311Z TN04/2324Z
TEMPO 2218/2302 3000 SHRA SCT020CB BKN025TCU
BECMG 2302/2304 25015G30KT 5000 -RA
TEMPO 2311/2317 2000 SHRA BKN025TCU OVC040
BECMG 2315/2317 VRB03KT
TEMPO 2317/2324 2000 RA OVC010
ATIS : +33 5 57 92 81 04



MET'MAP, your aeronautical weather chart ! - Copyright ORBIFLY December 2007 - Disclaimer

ORBIFLY MET'MAP TEAM :

Programming & Development : Alexandra Zaïnal
Concept & original design : Baudouin d'Aumeries
Assistance for programming : Marc-Olivier Méhu
Technical & hardware support : Manuel Goepfert

Contact : metmap@orbifly.com




SOURCES & CREDITS :

   NOAA